createdAt,value
2023-03-13T00:00:45.007Z,3.30
2023-03-13T00:03:42.068Z,3.30
2023-03-13T00:06:39.912Z,3.30
2023-03-13T00:09:36.725Z,3.30
2023-03-13T00:12:33.532Z,3.40
2023-03-13T00:15:30.347Z,3.30
2023-03-13T00:18:27.287Z,3.30
2023-03-13T00:21:28.223Z,3.40
2023-03-13T00:24:25.057Z,3.30
2023-03-13T00:27:21.884Z,3.40
2023-03-13T00:30:18.729Z,3.50
2023-03-13T00:33:15.550Z,3.50
2023-03-13T00:36:16.623Z,3.60
2023-03-13T00:39:13.441Z,3.60
2023-03-13T00:42:10.267Z,3.60
2023-03-13T00:45:07.568Z,3.60
2023-03-13T00:48:04.648Z,3.70
2023-03-13T00:51:03.428Z,3.80
2023-03-13T00:54:00.998Z,3.80
2023-03-13T00:56:57.847Z,3.90
2023-03-13T00:59:54.662Z,3.90
2023-03-13T01:02:51.616Z,3.90
2023-03-13T01:06:04.065Z,3.90
2023-03-13T01:09:01.507Z,3.90
2023-03-13T01:11:58.407Z,3.90
2023-03-13T01:14:55.278Z,4.00
2023-03-13T01:17:52.144Z,4.00
2023-03-13T01:20:48.960Z,4.00
2023-03-13T01:23:46.596Z,3.90
2023-03-13T01:26:43.418Z,3.90
2023-03-13T01:29:40.340Z,4.00
2023-03-13T01:32:37.349Z,4.00
2023-03-13T01:35:34.308Z,4.00
2023-03-13T01:38:31.190Z,4.00
2023-03-13T01:41:30.874Z,3.90
2023-03-13T01:44:28.150Z,3.90
2023-03-13T01:47:24.982Z,3.90
2023-03-13T01:50:21.976Z,4.00
2023-03-13T01:53:19.005Z,4.00
2023-03-13T01:56:34.449Z,4.00
2023-03-13T01:59:41.720Z,4.10
2023-03-13T02:02:42.755Z,4.20
2023-03-13T02:05:42.292Z,4.60
2023-03-13T02:08:51.841Z,5.00
2023-03-13T02:12:02.848Z,4.90
2023-03-13T02:15:06.789Z,5.00
2023-03-13T02:18:03.688Z,5.10
2023-03-13T02:21:16.882Z,5.20
2023-03-13T02:24:32.220Z,5.30
2023-03-13T02:27:29.270Z,5.20
2023-03-13T02:30:26.944Z,5.50
2023-03-13T02:33:29.061Z,5.40
2023-03-13T02:36:27.229Z,5.40
2023-03-13T02:39:25.242Z,5.70
2023-03-13T02:42:23.239Z,5.80
2023-03-13T02:45:20.056Z,5.90
2023-03-13T02:48:16.873Z,5.60
2023-03-13T02:51:28.367Z,5.70
2023-03-13T02:54:32.985Z,5.70
2023-03-13T02:57:29.805Z,5.70
2023-03-13T03:00:27.621Z,5.70
2023-03-13T03:03:24.446Z,5.80
2023-03-13T03:06:21.314Z,5.80
2023-03-13T03:09:20.075Z,6.00
2023-03-13T03:12:16.925Z,6.00
2023-03-13T03:15:14.064Z,5.80
2023-03-13T03:18:11.097Z,5.80
2023-03-13T03:21:08.100Z,6.10
2023-03-13T03:24:05.771Z,6.00
2023-03-13T03:27:02.571Z,6.00
2023-03-13T03:29:59.399Z,5.90
2023-03-13T03:32:56.313Z,6.00
2023-03-13T03:35:58.908Z,6.00
2023-03-13T03:38:55.801Z,6.10
2023-03-13T03:41:52.610Z,6.20
2023-03-13T03:44:49.412Z,6.30
2023-03-13T03:47:46.218Z,5.90
2023-03-13T03:50:43.305Z,5.80
2023-03-13T03:53:40.311Z,5.60
2023-03-13T03:56:37.098Z,5.70
2023-03-13T03:59:33.927Z,5.80
2023-03-13T04:02:30.913Z,5.70
2023-03-13T04:05:27.812Z,5.90
2023-03-13T04:08:24.669Z,5.90
2023-03-13T04:11:21.691Z,5.80
2023-03-13T04:14:18.493Z,5.70
2023-03-13T04:17:15.315Z,5.70
2023-03-13T04:20:14.253Z,5.80
2023-03-13T04:23:11.115Z,5.80
2023-03-13T04:26:07.910Z,5.80
2023-03-13T04:29:06.298Z,5.70
2023-03-13T04:32:03.258Z,5.70
2023-03-13T04:35:00.164Z,5.80
2023-03-13T04:37:57.049Z,5.70
2023-03-13T04:40:53.864Z,5.70
2023-03-13T04:43:50.690Z,5.70
2023-03-13T04:46:47.801Z,5.90
2023-03-13T04:49:44.600Z,6.00
2023-03-13T04:52:41.423Z,6.10
2023-03-13T04:55:38.229Z,6.10
2023-03-13T04:58:35.131Z,6.10
2023-03-13T05:01:32.510Z,6.10
2023-03-13T05:04:29.371Z,6.10
2023-03-13T05:07:26.217Z,6.10
2023-03-13T05:10:23.018Z,6.00
2023-03-13T05:13:19.832Z,6.00
2023-03-13T05:16:16.711Z,5.90
2023-03-13T05:19:13.987Z,5.90
2023-03-13T05:22:11.414Z,5.90
2023-03-13T05:25:08.897Z,5.90
2023-03-13T05:28:05.895Z,5.80
2023-03-13T05:31:02.874Z,5.80
2023-03-13T05:33:59.885Z,5.90
2023-03-13T05:36:56.856Z,5.90
2023-03-13T05:39:53.749Z,5.90
2023-03-13T05:42:50.590Z,5.80
2023-03-13T05:45:47.462Z,5.90
2023-03-13T05:48:45.587Z,5.90
2023-03-13T05:51:42.442Z,5.90
2023-03-13T05:54:39.285Z,5.90
2023-03-13T05:57:36.295Z,5.90
2023-03-13T06:00:33.505Z,5.90
2023-03-13T06:03:30.497Z,5.80
2023-03-13T06:06:27.367Z,5.80
2023-03-13T06:09:24.243Z,5.90
2023-03-13T06:12:21.046Z,5.90
2023-03-13T06:15:17.829Z,6.10
2023-03-13T06:18:14.658Z,6.00
2023-03-13T06:21:11.811Z,6.00
2023-03-13T06:24:08.841Z,6.00
2023-03-13T06:27:06.996Z,6.00
2023-03-13T06:30:04.833Z,6.00
2023-03-13T06:33:01.765Z,6.10
2023-03-13T06:36:00.406Z,6.10
2023-03-13T06:38:57.259Z,6.10
2023-03-13T06:41:54.060Z,6.00
2023-03-13T06:44:50.920Z,6.20
2023-03-13T06:47:47.855Z,6.10
2023-03-13T06:50:44.847Z,6.30
2023-03-13T06:53:41.839Z,6.20
2023-03-13T06:56:38.640Z,6.30
2023-03-13T06:59:35.502Z,6.20
2023-03-13T07:02:32.546Z,6.10
2023-03-13T07:05:29.430Z,6.10
2023-03-13T07:08:26.665Z,6.20
2023-03-13T07:11:23.545Z,6.20
2023-03-13T07:14:20.477Z,6.10
2023-03-13T07:17:17.322Z,6.00
2023-03-13T07:20:16.504Z,6.00
2023-03-13T07:23:14.813Z,6.00
2023-03-13T07:26:15.291Z,6.20
2023-03-13T07:29:12.260Z,6.30
2023-03-13T07:32:09.359Z,6.30
2023-03-13T07:35:06.909Z,6.30
2023-03-13T07:38:03.725Z,6.20
2023-03-13T07:41:00.727Z,6.30
2023-03-13T07:43:57.559Z,6.20
2023-03-13T07:46:54.354Z,6.30
2023-03-13T07:49:51.188Z,6.20
2023-03-13T07:52:48.034Z,6.20
2023-03-13T07:55:51.184Z,6.30
2023-03-13T07:58:48.866Z,6.40
2023-03-13T08:01:45.680Z,6.50
2023-03-13T08:04:42.795Z,6.50
2023-03-13T08:07:39.589Z,6.40
2023-03-13T08:10:36.790Z,6.50
2023-03-13T08:13:41.289Z,6.50
2023-03-13T08:16:38.273Z,6.50
2023-03-13T08:19:35.192Z,6.50
2023-03-13T08:22:32.024Z,6.70
2023-03-13T08:25:28.858Z,6.70
2023-03-13T08:28:25.711Z,6.90
2023-03-13T08:31:28.693Z,6.70
2023-03-13T08:34:25.515Z,6.90
2023-03-13T08:37:22.342Z,6.90
2023-03-13T08:40:19.243Z,6.80
2023-03-13T08:43:16.040Z,6.80
2023-03-13T08:46:13.729Z,6.90
2023-03-13T08:49:12.148Z,6.90
2023-03-13T08:52:08.965Z,6.90
2023-03-13T08:55:06.632Z,6.90
2023-03-13T08:58:03.569Z,6.90
2023-03-13T09:01:14.767Z,6.90
2023-03-13T09:04:11.691Z,7.00
2023-03-13T09:07:08.540Z,7.10
2023-03-13T09:10:06.202Z,7.00
2023-03-13T09:13:03.173Z,7.10
2023-03-13T09:16:03.829Z,7.00
2023-03-13T09:19:01.969Z,7.00
2023-03-13T09:21:59.436Z,7.00
2023-03-13T09:24:56.280Z,7.20
2023-03-13T09:27:53.145Z,7.20
2023-03-13T09:30:50.510Z,7.30
2023-03-13T09:33:49.084Z,7.50
2023-03-13T09:36:46.234Z,7.50
2023-03-13T09:39:43.221Z,7.50
2023-03-13T09:42:52.996Z,7.70
2023-03-13T09:45:52.876Z,7.70
2023-03-13T09:49:02.780Z,7.80
2023-03-13T09:52:28.785Z,8.10
2023-03-13T09:55:36.614Z,8.50
2023-03-13T09:58:34.792Z,8.00
2023-03-13T10:01:33.933Z,8.10
2023-03-13T10:04:49.931Z,8.20
2023-03-13T10:07:46.993Z,8.50
2023-03-13T10:11:09.063Z,8.50
2023-03-13T10:14:33.727Z,8.40
2023-03-13T10:17:40.153Z,8.50
2023-03-13T10:20:37.010Z,8.50
2023-03-13T10:24:01.195Z,8.80
2023-03-13T10:26:58.338Z,8.80
2023-03-13T10:29:55.309Z,9.00
2023-03-13T10:33:17.082Z,9.00
2023-03-13T10:36:15.202Z,9.10
2023-03-13T10:39:23.505Z,9.40
2023-03-13T10:42:36.076Z,9.40
2023-03-13T10:45:36.616Z,9.00
2023-03-13T10:48:37.500Z,9.00
2023-03-13T10:51:39.174Z,9.00
2023-03-13T10:54:39.689Z,9.10
2023-03-13T10:57:37.981Z,9.50
2023-03-13T11:00:41.035Z,9.40
2023-03-13T11:03:38.045Z,9.50
2023-03-13T11:06:35.709Z,9.40
2023-03-13T11:09:33.343Z,9.50
2023-03-13T11:12:35.409Z,9.70
2023-03-13T11:15:51.457Z,9.90
2023-03-13T11:19:11.345Z,9.80
2023-03-13T11:22:14.494Z,9.90
2023-03-13T11:25:39.345Z,9.80
2023-03-13T11:29:20.689Z,9.90
2023-03-13T11:32:31.842Z,9.90
2023-03-13T11:35:48.060Z,10.00
2023-03-13T11:39:02.586Z,10.00
2023-03-13T11:42:59.015Z,9.90
2023-03-13T11:46:25.928Z,10.00
2023-03-13T11:49:40.852Z,10.10
2023-03-13T11:52:58.180Z,10.10
2023-03-13T11:56:15.260Z,10.00
2023-03-13T11:59:55.467Z,10.10
2023-03-13T12:03:10.850Z,10.20
2023-03-13T12:06:27.832Z,10.20
2023-03-13T12:09:45.327Z,10.20
2023-03-13T12:13:21.036Z,10.10
2023-03-13T12:16:31.115Z,10.30
2023-03-13T12:19:55.382Z,10.30
2023-03-13T12:23:18.804Z,10.20
2023-03-13T12:26:24.258Z,10.30
2023-03-13T12:29:48.929Z,10.30
2023-03-13T12:33:16.142Z,10.30
2023-03-13T12:36:29.196Z,10.40
2023-03-13T12:39:55.419Z,10.20
2023-03-13T12:43:24.883Z,10.30
2023-03-13T12:47:07.766Z,10.30
2023-03-13T12:50:45.008Z,10.20
2023-03-13T12:54:09.487Z,10.30
2023-03-13T12:57:21.503Z,10.10
2023-03-13T13:00:28.486Z,10.20
2023-03-13T13:04:04.235Z,10.10
2023-03-13T13:07:08.036Z,10.10
2023-03-13T13:10:11.200Z,10.20
2023-03-13T13:13:13.844Z,10.10
2023-03-13T13:16:20.258Z,10.20
2023-03-13T13:19:26.412Z,10.10
2023-03-13T13:22:38.358Z,10.10
2023-03-13T13:25:36.261Z,10.00
2023-03-13T13:28:35.588Z,9.90
2023-03-13T13:31:58.746Z,9.90
2023-03-13T13:35:23.613Z,10.20
2023-03-13T13:38:20.313Z,10.30
2023-03-13T13:41:16.973Z,10.30
2023-03-13T13:44:27.363Z,10.30
2023-03-13T13:47:26.708Z,10.40
2023-03-13T13:50:29.081Z,10.30
2023-03-13T13:53:42.187Z,10.30
2023-03-13T13:56:56.433Z,10.40
2023-03-13T14:00:25.003Z,10.60
2023-03-13T14:03:33.134Z,10.70
2023-03-13T14:06:36.541Z,10.70
2023-03-13T14:10:32.617Z,10.80
2023-03-13T14:13:29.589Z,10.90
2023-03-13T14:16:27.572Z,10.90
2023-03-13T14:19:40.668Z,11.00
2023-03-13T14:22:48.939Z,10.90
2023-03-13T14:25:49.271Z,10.90
2023-03-13T14:29:07.409Z,10.90
2023-03-13T14:32:06.176Z,10.90
2023-03-13T14:35:06.079Z,10.90
2023-03-13T14:38:03.799Z,10.80
2023-03-13T14:41:00.887Z,10.80
2023-03-13T14:44:12.498Z,10.90
2023-03-13T14:47:30.784Z,10.90
2023-03-13T14:50:27.834Z,10.90
2023-03-13T14:53:27.161Z,11.00
2023-03-13T14:56:33.118Z,11.00
2023-03-13T14:59:30.153Z,10.90
2023-03-13T15:02:30.899Z,10.90
2023-03-13T15:05:34.695Z,10.90
2023-03-13T15:08:31.874Z,11.10
2023-03-13T15:11:36.198Z,11.00
2023-03-13T15:14:46.236Z,11.00
2023-03-13T15:17:43.523Z,11.10
2023-03-13T15:20:40.460Z,11.40
2023-03-13T15:23:37.306Z,11.70
2023-03-13T15:26:34.353Z,11.80
2023-03-13T15:29:31.171Z,11.90
2023-03-13T15:32:35.741Z,12.40
2023-03-13T15:35:33.892Z,12.50
2023-03-13T15:38:30.802Z,12.40
2023-03-13T15:41:27.881Z,12.30
2023-03-13T15:44:24.777Z,12.30
2023-03-13T15:47:22.394Z,12.20
2023-03-13T15:50:22.393Z,12.30
2023-03-13T15:53:32.960Z,12.40
2023-03-13T15:56:35.634Z,12.30
2023-03-13T15:59:32.474Z,12.20
2023-03-13T16:02:29.264Z,12.30
2023-03-13T16:05:26.150Z,12.30
2023-03-13T16:08:36.562Z,12.20
2023-03-13T16:11:34.167Z,12.00
2023-03-13T16:14:30.988Z,11.90
2023-03-13T16:17:29.176Z,11.90
2023-03-13T16:20:26.519Z,11.70
2023-03-13T16:23:23.357Z,11.80
2023-03-13T16:29:25.746Z,11.60
2023-03-13T16:32:24.670Z,11.50
2023-03-13T16:35:23.144Z,11.60
2023-03-13T16:38:20.494Z,11.40
2023-03-13T16:41:20.859Z,11.30
2023-03-13T16:44:17.710Z,11.30
2023-03-13T16:47:25.149Z,11.20
2023-03-13T16:50:32.017Z,11.30
2023-03-13T16:53:29.009Z,11.30
2023-03-13T16:56:38.550Z,11.30
2023-03-13T16:59:35.399Z,11.20
2023-03-13T17:02:35.103Z,11.20
2023-03-13T17:05:32.008Z,11.30
2023-03-13T17:08:28.850Z,11.50
2023-03-13T17:11:25.745Z,11.70
2023-03-13T17:14:22.544Z,12.00
2023-03-13T17:17:22.875Z,11.20
2023-03-13T17:20:25.354Z,10.50
2023-03-13T17:23:22.175Z,10.20
2023-03-13T17:26:35.429Z,9.80
2023-03-13T17:29:32.242Z,9.50
2023-03-13T17:32:29.061Z,9.30
2023-03-13T17:35:26.131Z,9.20
2023-03-13T17:38:22.972Z,9.10
2023-03-13T17:41:25.974Z,9.00
2023-03-13T17:44:22.877Z,9.00
2023-03-13T17:47:23.951Z,8.90
2023-03-13T17:50:27.240Z,8.90
2023-03-13T17:53:24.167Z,8.80
2023-03-13T17:56:23.579Z,8.80
2023-03-13T17:59:20.375Z,8.60
2023-03-13T18:02:19.175Z,8.60
2023-03-13T18:05:16.482Z,8.60
2023-03-13T18:08:13.732Z,8.50
2023-03-13T18:11:12.125Z,8.50
2023-03-13T18:14:09.367Z,8.50
2023-03-13T18:17:19.010Z,8.60
2023-03-13T18:20:30.232Z,8.50
2023-03-13T18:23:27.082Z,8.60
2023-03-13T18:26:32.549Z,8.50
2023-03-13T18:29:29.966Z,8.70
2023-03-13T18:32:26.933Z,8.50
2023-03-13T18:35:23.821Z,8.40
2023-03-13T18:38:20.664Z,8.50
2023-03-13T18:41:19.791Z,8.40
2023-03-13T18:44:18.944Z,8.40
2023-03-13T18:47:18.949Z,8.30
2023-03-13T18:50:30.917Z,8.30
2023-03-13T18:53:27.767Z,8.40
2023-03-13T18:56:31.547Z,8.30
2023-03-13T18:59:29.562Z,8.30
2023-03-13T19:02:26.406Z,8.30
2023-03-13T19:05:24.139Z,8.20
2023-03-13T19:08:21.050Z,8.30
2023-03-13T19:11:21.991Z,8.10
2023-03-13T19:14:18.826Z,8.20
2023-03-13T19:17:29.560Z,8.20
2023-03-13T19:20:27.666Z,8.10
2023-03-13T19:23:24.808Z,8.10
2023-03-13T19:26:47.029Z,8.20
2023-03-13T19:29:45.399Z,8.20
2023-03-13T19:32:42.344Z,8.20
2023-03-13T19:35:39.408Z,8.40
2023-03-13T19:38:36.249Z,8.30
2023-03-13T19:41:33.049Z,8.20
2023-03-13T19:44:29.886Z,8.10
2023-03-13T19:47:26.771Z,8.10
2023-03-13T19:50:29.014Z,8.10
2023-03-13T19:53:25.916Z,8.00
2023-03-13T19:56:26.289Z,7.90
2023-03-13T19:59:28.329Z,7.90
2023-03-13T20:02:25.287Z,7.90
2023-03-13T20:05:22.654Z,8.00
2023-03-13T20:08:19.491Z,7.90
2023-03-13T20:11:16.415Z,7.90
2023-03-13T20:14:13.395Z,7.90
2023-03-13T20:17:10.183Z,7.90
2023-03-13T20:20:08.485Z,7.90
2023-03-13T20:23:05.307Z,7.90
2023-03-13T20:26:10.582Z,7.90
2023-03-13T20:29:07.427Z,7.90
2023-03-13T20:32:05.923Z,8.00
2023-03-13T20:35:02.824Z,8.00
2023-03-13T20:38:01.736Z,8.00
2023-03-13T20:40:59.037Z,8.10
2023-03-13T20:43:55.843Z,8.10
2023-03-13T20:46:52.824Z,8.20
2023-03-13T20:49:49.761Z,8.10
2023-03-13T20:52:46.790Z,8.10
2023-03-13T20:55:43.671Z,8.30
2023-03-13T20:58:40.556Z,8.30
2023-03-13T21:01:37.433Z,8.40
2023-03-13T21:04:34.293Z,8.70
2023-03-13T21:07:32.263Z,8.70
2023-03-13T21:10:29.061Z,8.70
2023-03-13T21:13:25.855Z,8.70
2023-03-13T21:16:22.705Z,8.70
2023-03-13T21:19:21.678Z,8.70
2023-03-13T21:22:19.346Z,8.70
2023-03-13T21:25:16.269Z,8.70
2023-03-13T21:28:13.076Z,8.60
2023-03-13T21:34:08.409Z,8.50
2023-03-13T21:37:05.258Z,8.60
2023-03-13T21:40:02.375Z,8.70
2023-03-13T21:42:59.244Z,8.70
2023-03-13T21:45:59.340Z,8.70
2023-03-13T21:48:56.150Z,8.80
2023-03-13T21:51:53.012Z,8.80
2023-03-13T21:54:50.084Z,8.70
2023-03-13T21:57:46.967Z,8.60
2023-03-13T22:00:44.834Z,8.80
2023-03-13T22:03:41.770Z,8.70
2023-03-13T22:06:38.636Z,8.80
2023-03-13T22:09:35.637Z,8.70
2023-03-13T22:12:32.477Z,8.80
2023-03-13T22:15:29.321Z,8.90
2023-03-13T22:18:26.377Z,8.80
2023-03-13T22:21:23.208Z,8.90
2023-03-13T22:24:20.085Z,8.90
2023-03-13T22:27:17.953Z,8.80
2023-03-13T22:30:14.957Z,8.90
2023-03-13T22:33:11.873Z,8.90
2023-03-13T22:36:09.812Z,9.00
2023-03-13T22:39:06.675Z,9.00
2023-03-13T22:42:04.185Z,8.90
2023-03-13T22:45:01.040Z,8.90
2023-03-13T22:47:58.120Z,8.90
2023-03-13T22:51:06.089Z,9.00
2023-03-13T22:54:04.280Z,9.00
2023-03-13T22:57:01.109Z,9.00
2023-03-13T23:00:01.649Z,9.00
2023-03-13T23:02:58.692Z,9.10
2023-03-13T23:05:55.554Z,9.10
2023-03-13T23:08:52.752Z,9.10
2023-03-13T23:11:49.532Z,9.30
2023-03-13T23:14:46.459Z,9.20
2023-03-13T23:17:43.520Z,9.20
2023-03-13T23:20:40.385Z,9.00
2023-03-13T23:23:37.872Z,9.00
2023-03-13T23:26:34.737Z,9.00
2023-03-13T23:29:31.901Z,9.00
2023-03-13T23:32:28.957Z,9.10
2023-03-13T23:35:25.866Z,9.00
2023-03-13T23:38:25.332Z,9.00
2023-03-13T23:41:22.430Z,9.00
2023-03-13T23:44:19.311Z,9.00
2023-03-13T23:47:16.131Z,9.00
2023-03-13T23:50:15.479Z,9.00
2023-03-13T23:53:12.455Z,8.90
2023-03-13T23:56:10.784Z,8.90
2023-03-13T23:59:07.695Z,8.90
